sensor_id;sensor_type;location;lat;lon;timestamp;P1;durP1;ratioP1;P2;durP2;ratioP2
71696;SDS011;68167;59.120;37.898;2023-07-02T00:01:50;8.03;;;7.23;;
71696;SDS011;68167;59.120;37.898;2023-07-02T00:04:17;9.07;;;6.70;;
71696;SDS011;68167;59.120;37.898;2023-07-02T00:06:45;10.03;;;6.97;;
71696;SDS011;68167;59.120;37.898;2023-07-02T00:09:12;9.33;;;7.40;;
71696;SDS011;68167;59.120;37.898;2023-07-02T00:11:40;11.13;;;7.17;;
71696;SDS011;68167;59.120;37.898;2023-07-02T00:14:08;10.33;;;7.57;;
71696;SDS011;68167;59.120;37.898;2023-07-02T00:16:37;8.13;;;7.10;;
71696;SDS011;68167;59.120;37.898;2023-07-02T00:19:04;10.67;;;7.20;;
71696;SDS011;68167;59.120;37.898;2023-07-02T00:21:31;11.77;;;6.83;;
71696;SDS011;68167;59.120;37.898;2023-07-02T00:23:59;8.77;;;7.37;;
71696;SDS011;68167;59.120;37.898;2023-07-02T00:26:26;8.03;;;7.20;;
71696;SDS011;68167;59.120;37.898;2023-07-02T00:28:54;10.60;;;7.33;;
71696;SDS011;68167;59.120;37.898;2023-07-02T00:31:21;9.50;;;8.13;;
71696;SDS011;68167;59.120;37.898;2023-07-02T00:33:49;7.50;;;6.73;;
71696;SDS011;68167;59.120;37.898;2023-07-02T00:36:16;7.97;;;7.17;;
71696;SDS011;68167;59.120;37.898;2023-07-02T00:38:44;10.67;;;7.63;;
71696;SDS011;68167;59.120;37.898;2023-07-02T00:41:13;8.53;;;7.57;;
71696;SDS011;68167;59.120;37.898;2023-07-02T00:43:39;12.97;;;7.63;;
71696;SDS011;68167;59.120;37.898;2023-07-02T00:46:09;9.47;;;7.37;;
71696;SDS011;68167;59.120;37.898;2023-07-02T00:48:38;10.03;;;7.53;;
71696;SDS011;68167;59.120;37.898;2023-07-02T00:51:06;11.40;;;7.33;;
71696;SDS011;68167;59.120;37.898;2023-07-02T00:53:34;10.30;;;7.40;;
71696;SDS011;68167;59.120;37.898;2023-07-02T00:56:01;8.67;;;7.17;;
71696;SDS011;68167;59.120;37.898;2023-07-02T00:58:27;12.57;;;8.27;;
71696;SDS011;68167;59.120;37.898;2023-07-02T01:00:54;10.60;;;8.13;;
71696;SDS011;68167;59.120;37.898;2023-07-02T01:03:22;16.73;;;8.03;;
71696;SDS011;68167;59.120;37.898;2023-07-02T01:05:49;10.83;;;7.77;;
71696;SDS011;68167;59.120;37.898;2023-07-02T01:08:15;9.97;;;7.70;;
71696;SDS011;68167;59.120;37.898;2023-07-02T01:10:43;10.23;;;7.97;;
71696;SDS011;68167;59.120;37.898;2023-07-02T01:13:12;13.17;;;7.70;;
71696;SDS011;68167;59.120;37.898;2023-07-02T01:15:42;10.93;;;7.37;;
71696;SDS011;68167;59.120;37.898;2023-07-02T01:18:10;9.27;;;7.60;;
71696;SDS011;68167;59.120;37.898;2023-07-02T01:20:40;11.03;;;7.93;;
71696;SDS011;68167;59.120;37.898;2023-07-02T01:23:08;12.20;;;8.27;;
71696;SDS011;68167;59.120;37.898;2023-07-02T01:25:35;9.03;;;8.03;;
71696;SDS011;68167;59.120;37.898;2023-07-02T01:28:02;13.40;;;7.97;;
71696;SDS011;68167;59.120;37.898;2023-07-02T01:30:29;10.00;;;7.53;;
71696;SDS011;68167;59.120;37.898;2023-07-02T01:32:56;10.70;;;8.17;;
71696;SDS011;68167;59.120;37.898;2023-07-02T01:35:22;11.77;;;7.87;;
71696;SDS011;68167;59.120;37.898;2023-07-02T01:37:49;13.37;;;7.63;;
71696;SDS011;68167;59.120;37.898;2023-07-02T01:40:15;8.60;;;7.37;;
71696;SDS011;68167;59.120;37.898;2023-07-02T01:42:42;9.20;;;7.90;;
71696;SDS011;68167;59.120;37.898;2023-07-02T01:45:08;11.00;;;8.60;;
71696;SDS011;68167;59.120;37.898;2023-07-02T01:47:35;9.03;;;7.87;;
71696;SDS011;68167;59.120;37.898;2023-07-02T01:50:03;8.67;;;7.60;;
71696;SDS011;68167;59.120;37.898;2023-07-02T01:52:30;10.57;;;8.33;;
71696;SDS011;68167;59.120;37.898;2023-07-02T01:55:01;9.47;;;8.00;;
71696;SDS011;68167;59.120;37.898;2023-07-02T01:57:28;8.73;;;7.33;;
71696;SDS011;68167;59.120;37.898;2023-07-02T01:59:56;10.30;;;8.10;;
71696;SDS011;68167;59.120;37.898;2023-07-02T02:02:24;9.80;;;8.73;;
71696;SDS011;68167;59.120;37.898;2023-07-02T02:04:50;14.47;;;8.30;;
71696;SDS011;68167;59.120;37.898;2023-07-02T02:07:18;10.97;;;8.77;;
71696;SDS011;68167;59.120;37.898;2023-07-02T02:09:44;11.33;;;8.40;;
71696;SDS011;68167;59.120;37.898;2023-07-02T02:12:11;12.60;;;8.13;;
71696;SDS011;68167;59.120;37.898;2023-07-02T02:14:40;9.97;;;7.83;;
71696;SDS011;68167;59.120;37.898;2023-07-02T02:17:06;11.03;;;8.33;;
71696;SDS011;68167;59.120;37.898;2023-07-02T02:19:33;10.50;;;8.57;;
71696;SDS011;68167;59.120;37.898;2023-07-02T02:21:59;11.03;;;8.73;;
71696;SDS011;68167;59.120;37.898;2023-07-02T02:24:25;15.27;;;9.13;;
71696;SDS011;68167;59.120;37.898;2023-07-02T02:26:53;12.63;;;8.83;;
71696;SDS011;68167;59.120;37.898;2023-07-02T02:29:19;15.73;;;8.67;;
71696;SDS011;68167;59.120;37.898;2023-07-02T02:31:45;10.47;;;8.40;;
71696;SDS011;68167;59.120;37.898;2023-07-02T02:34:12;10.90;;;8.80;;
71696;SDS011;68167;59.120;37.898;2023-07-02T02:36:38;10.97;;;8.17;;
71696;SDS011;68167;59.120;37.898;2023-07-02T02:39:04;9.60;;;8.33;;
71696;SDS011;68167;59.120;37.898;2023-07-02T02:41:31;11.67;;;8.47;;
71696;SDS011;68167;59.120;37.898;2023-07-02T02:43:57;8.93;;;7.80;;
71696;SDS011;68167;59.120;37.898;2023-07-02T02:46:24;8.90;;;8.00;;
71696;SDS011;68167;59.120;37.898;2023-07-02T02:48:51;9.20;;;7.70;;
71696;SDS011;68167;59.120;37.898;2023-07-02T02:51:18;8.77;;;7.83;;
71696;SDS011;68167;59.120;37.898;2023-07-02T02:53:44;8.87;;;7.90;;
71696;SDS011;68167;59.120;37.898;2023-07-02T02:56:10;9.90;;;7.60;;
71696;SDS011;68167;59.120;37.898;2023-07-02T02:58:36;8.93;;;7.77;;
71696;SDS011;68167;59.120;37.898;2023-07-02T03:01:03;11.13;;;7.03;;
71696;SDS011;68167;59.120;37.898;2023-07-02T03:03:39;8.33;;;7.37;;
71696;SDS011;68167;59.120;37.898;2023-07-02T03:06:14;9.47;;;7.23;;
71696;SDS011;68167;59.120;37.898;2023-07-02T03:08:40;10.50;;;8.00;;
71696;SDS011;68167;59.120;37.898;2023-07-02T03:11:07;9.43;;;7.77;;
71696;SDS011;68167;59.120;37.898;2023-07-02T03:13:33;9.53;;;6.67;;
71696;SDS011;68167;59.120;37.898;2023-07-02T03:15:59;7.33;;;6.60;;
71696;SDS011;68167;59.120;37.898;2023-07-02T03:18:26;11.63;;;8.77;;
71696;SDS011;68167;59.120;37.898;2023-07-02T03:20:52;9.87;;;6.77;;
71696;SDS011;68167;59.120;37.898;2023-07-02T03:23:18;8.07;;;7.27;;
71696;SDS011;68167;59.120;37.898;2023-07-02T03:25:44;7.73;;;6.80;;
71696;SDS011;68167;59.120;37.898;2023-07-02T03:28:10;8.07;;;7.23;;
71696;SDS011;68167;59.120;37.898;2023-07-02T03:30:37;8.77;;;7.67;;
71696;SDS011;68167;59.120;37.898;2023-07-02T03:33:03;11.27;;;7.83;;
71696;SDS011;68167;59.120;37.898;2023-07-02T03:35:30;9.30;;;7.37;;
71696;SDS011;68167;59.120;37.898;2023-07-02T03:37:56;9.60;;;7.00;;
71696;SDS011;68167;59.120;37.898;2023-07-02T03:40:23;8.83;;;6.70;;
71696;SDS011;68167;59.120;37.898;2023-07-02T03:42:49;8.40;;;6.90;;
71696;SDS011;68167;59.120;37.898;2023-07-02T03:45:15;7.90;;;6.77;;
71696;SDS011;68167;59.120;37.898;2023-07-02T03:47:41;7.63;;;6.57;;
71696;SDS011;68167;59.120;37.898;2023-07-02T03:50:09;8.00;;;6.43;;
71696;SDS011;68167;59.120;37.898;2023-07-02T03:52:35;8.40;;;7.17;;
71696;SDS011;68167;59.120;37.898;2023-07-02T03:55:02;8.13;;;7.03;;
71696;SDS011;68167;59.120;37.898;2023-07-02T03:57:29;7.53;;;6.83;;
71696;SDS011;68167;59.120;37.898;2023-07-02T03:59:56;8.20;;;6.57;;
71696;SDS011;68167;59.120;37.898;2023-07-02T04:02:22;6.97;;;6.27;;
71696;SDS011;68167;59.120;37.898;2023-07-02T04:04:49;8.67;;;6.77;;
71696;SDS011;68167;59.120;37.898;2023-07-02T04:07:15;8.57;;;6.33;;
71696;SDS011;68167;59.120;37.898;2023-07-02T04:09:42;10.37;;;6.07;;
71696;SDS011;68167;59.120;37.898;2023-07-02T04:12:08;8.60;;;6.37;;
71696;SDS011;68167;59.120;37.898;2023-07-02T04:14:35;7.53;;;5.90;;
71696;SDS011;68167;59.120;37.898;2023-07-02T04:17:02;8.33;;;5.73;;
71696;SDS011;68167;59.120;37.898;2023-07-02T04:19:31;6.77;;;5.87;;
71696;SDS011;68167;59.120;37.898;2023-07-02T04:22:02;6.87;;;5.80;;
71696;SDS011;68167;59.120;37.898;2023-07-02T04:24:29;8.67;;;5.63;;
71696;SDS011;68167;59.120;37.898;2023-07-02T04:26:55;7.13;;;5.73;;
71696;SDS011;68167;59.120;37.898;2023-07-02T04:29:22;8.73;;;5.20;;
71696;SDS011;68167;59.120;37.898;2023-07-02T04:31:48;7.10;;;5.60;;
71696;SDS011;68167;59.120;37.898;2023-07-02T04:34:15;7.73;;;5.00;;
71696;SDS011;68167;59.120;37.898;2023-07-02T04:36:41;8.70;;;5.13;;
71696;SDS011;68167;59.120;37.898;2023-07-02T04:39:09;9.90;;;5.20;;
71696;SDS011;68167;59.120;37.898;2023-07-02T04:41:36;5.93;;;5.07;;
71696;SDS011;68167;59.120;37.898;2023-07-02T04:44:03;7.13;;;5.10;;
71696;SDS011;68167;59.120;37.898;2023-07-02T04:46:30;7.00;;;4.53;;
71696;SDS011;68167;59.120;37.898;2023-07-02T04:48:56;5.93;;;4.03;;
71696;SDS011;68167;59.120;37.898;2023-07-02T04:51:23;7.70;;;4.27;;
71696;SDS011;68167;59.120;37.898;2023-07-02T04:53:49;4.70;;;4.10;;
71696;SDS011;68167;59.120;37.898;2023-07-02T04:56:16;5.67;;;4.17;;
71696;SDS011;68167;59.120;37.898;2023-07-02T04:58:42;5.03;;;3.90;;
71696;SDS011;68167;59.120;37.898;2023-07-02T05:01:09;9.93;;;4.67;;
71696;SDS011;68167;59.120;37.898;2023-07-02T05:03:36;6.33;;;3.97;;
71696;SDS011;68167;59.120;37.898;2023-07-02T05:06:04;8.03;;;4.40;;
71696;SDS011;68167;59.120;37.898;2023-07-02T05:08:30;6.47;;;4.30;;
71696;SDS011;68167;59.120;37.898;2023-07-02T05:10:57;6.13;;;4.73;;
71696;SDS011;68167;59.120;37.898;2023-07-02T05:13:23;6.67;;;4.10;;
71696;SDS011;68167;59.120;37.898;2023-07-02T05:15:49;9.10;;;5.03;;
71696;SDS011;68167;59.120;37.898;2023-07-02T05:18:16;8.30;;;5.10;;
71696;SDS011;68167;59.120;37.898;2023-07-02T05:20:42;8.47;;;5.00;;
71696;SDS011;68167;59.120;37.898;2023-07-02T05:23:09;9.37;;;5.53;;
71696;SDS011;68167;59.120;37.898;2023-07-02T05:25:35;8.07;;;5.23;;
71696;SDS011;68167;59.120;37.898;2023-07-02T05:28:02;8.23;;;4.90;;
71696;SDS011;68167;59.120;37.898;2023-07-02T05:30:28;7.37;;;5.43;;
71696;SDS011;68167;59.120;37.898;2023-07-02T05:32:55;9.23;;;4.77;;
71696;SDS011;68167;59.120;37.898;2023-07-02T05:35:21;8.57;;;4.90;;
71696;SDS011;68167;59.120;37.898;2023-07-02T05:37:48;11.60;;;5.53;;
71696;SDS011;68167;59.120;37.898;2023-07-02T05:40:14;8.20;;;5.27;;
71696;SDS011;68167;59.120;37.898;2023-07-02T05:42:41;7.17;;;4.87;;
71696;SDS011;68167;59.120;37.898;2023-07-02T05:45:08;7.10;;;4.60;;
71696;SDS011;68167;59.120;37.898;2023-07-02T05:47:35;5.50;;;4.10;;
71696;SDS011;68167;59.120;37.898;2023-07-02T05:50:02;6.90;;;4.43;;
71696;SDS011;68167;59.120;37.898;2023-07-02T05:52:29;7.87;;;4.67;;
71696;SDS011;68167;59.120;37.898;2023-07-02T05:54:55;7.47;;;4.53;;
71696;SDS011;68167;59.120;37.898;2023-07-02T05:57:22;6.87;;;4.80;;
71696;SDS011;68167;59.120;37.898;2023-07-02T05:59:48;6.50;;;4.83;;
71696;SDS011;68167;59.120;37.898;2023-07-02T06:02:15;7.40;;;5.03;;
71696;SDS011;68167;59.120;37.898;2023-07-02T06:04:41;9.97;;;7.13;;
71696;SDS011;68167;59.120;37.898;2023-07-02T06:07:08;7.13;;;5.50;;
71696;SDS011;68167;59.120;37.898;2023-07-02T06:09:34;6.93;;;4.80;;
71696;SDS011;68167;59.120;37.898;2023-07-02T06:12:00;5.63;;;4.30;;
71696;SDS011;68167;59.120;37.898;2023-07-02T06:14:27;5.27;;;4.27;;
71696;SDS011;68167;59.120;37.898;2023-07-02T06:16:53;5.67;;;4.60;;
71696;SDS011;68167;59.120;37.898;2023-07-02T06:19:23;7.73;;;4.53;;
71696;SDS011;68167;59.120;37.898;2023-07-02T06:21:50;6.17;;;4.13;;
71696;SDS011;68167;59.120;37.898;2023-07-02T06:24:16;8.53;;;4.30;;
71696;SDS011;68167;59.120;37.898;2023-07-02T06:26:43;7.03;;;4.20;;
71696;SDS011;68167;59.120;37.898;2023-07-02T06:29:09;6.07;;;4.40;;
71696;SDS011;68167;59.120;37.898;2023-07-02T06:31:36;5.83;;;4.27;;
71696;SDS011;68167;59.120;37.898;2023-07-02T06:34:03;6.37;;;4.57;;
71696;SDS011;68167;59.120;37.898;2023-07-02T06:36:29;6.80;;;4.53;;
71696;SDS011;68167;59.120;37.898;2023-07-02T06:38:55;7.43;;;5.03;;
71696;SDS011;68167;59.120;37.898;2023-07-02T06:41:22;7.10;;;4.50;;
71696;SDS011;68167;59.120;37.898;2023-07-02T06:43:48;5.63;;;4.23;;
71696;SDS011;68167;59.120;37.898;2023-07-02T06:46:15;8.87;;;4.27;;
71696;SDS011;68167;59.120;37.898;2023-07-02T06:48:41;4.90;;;3.80;;
71696;SDS011;68167;59.120;37.898;2023-07-02T06:51:08;5.77;;;4.00;;
71696;SDS011;68167;59.120;37.898;2023-07-02T06:53:35;6.73;;;3.50;;
71696;SDS011;68167;59.120;37.898;2023-07-02T06:56:02;7.97;;;4.20;;
71696;SDS011;68167;59.120;37.898;2023-07-02T06:58:30;5.70;;;4.07;;
71696;SDS011;68167;59.120;37.898;2023-07-02T07:00:56;7.23;;;3.97;;
71696;SDS011;68167;59.120;37.898;2023-07-02T07:03:23;5.13;;;3.53;;
71696;SDS011;68167;59.120;37.898;2023-07-02T07:05:50;8.03;;;4.00;;
71696;SDS011;68167;59.120;37.898;2023-07-02T07:08:16;6.80;;;4.13;;
71696;SDS011;68167;59.120;37.898;2023-07-02T07:10:43;7.40;;;4.20;;
71696;SDS011;68167;59.120;37.898;2023-07-02T07:13:11;4.83;;;3.60;;
71696;SDS011;68167;59.120;37.898;2023-07-02T07:15:38;4.00;;;3.60;;
71696;SDS011;68167;59.120;37.898;2023-07-02T07:18:04;6.97;;;4.10;;
71696;SDS011;68167;59.120;37.898;2023-07-02T07:20:31;8.30;;;3.87;;
71696;SDS011;68167;59.120;37.898;2023-07-02T07:22:57;4.90;;;3.87;;
71696;SDS011;68167;59.120;37.898;2023-07-02T07:25:24;7.50;;;4.00;;
71696;SDS011;68167;59.120;37.898;2023-07-02T07:27:51;5.83;;;3.77;;
71696;SDS011;68167;59.120;37.898;2023-07-02T07:30:17;6.70;;;4.30;;
71696;SDS011;68167;59.120;37.898;2023-07-02T07:32:49;8.17;;;4.27;;
71696;SDS011;68167;59.120;37.898;2023-07-02T07:35:19;7.13;;;3.67;;
71696;SDS011;68167;59.120;37.898;2023-07-02T07:37:47;5.53;;;3.30;;
71696;SDS011;68167;59.120;37.898;2023-07-02T07:40:14;10.60;;;3.50;;
71696;SDS011;68167;59.120;37.898;2023-07-02T07:42:41;10.53;;;3.50;;
71696;SDS011;68167;59.120;37.898;2023-07-02T07:45:11;5.80;;;3.10;;
71696;SDS011;68167;59.120;37.898;2023-07-02T07:47:38;4.53;;;2.40;;
71696;SDS011;68167;59.120;37.898;2023-07-02T07:50:05;7.93;;;3.67;;
71696;SDS011;68167;59.120;37.898;2023-07-02T07:52:39;8.80;;;3.47;;
71696;SDS011;68167;59.120;37.898;2023-07-02T07:55:06;9.03;;;4.13;;
71696;SDS011;68167;59.120;37.898;2023-07-02T07:57:33;8.47;;;4.03;;
71696;SDS011;68167;59.120;37.898;2023-07-02T08:00:02;4.87;;;3.23;;
71696;SDS011;68167;59.120;37.898;2023-07-02T08:02:45;10.83;;;3.17;;
71696;SDS011;68167;59.120;37.898;2023-07-02T08:05:15;4.80;;;2.70;;
71696;SDS011;68167;59.120;37.898;2023-07-02T08:07:43;7.33;;;2.90;;
71696;SDS011;68167;59.120;37.898;2023-07-02T08:10:09;6.37;;;2.83;;
71696;SDS011;68167;59.120;37.898;2023-07-02T08:12:36;6.17;;;3.03;;
71696;SDS011;68167;59.120;37.898;2023-07-02T08:15:03;4.70;;;2.83;;
71696;SDS011;68167;59.120;37.898;2023-07-02T08:17:30;5.33;;;3.00;;
71696;SDS011;68167;59.120;37.898;2023-07-02T08:19:57;8.87;;;3.37;;
71696;SDS011;68167;59.120;37.898;2023-07-02T08:22:23;6.53;;;3.30;;
71696;SDS011;68167;59.120;37.898;2023-07-02T08:24:50;5.80;;;4.10;;
71696;SDS011;68167;59.120;37.898;2023-07-02T08:27:17;3.63;;;2.80;;
71696;SDS011;68167;59.120;37.898;2023-07-02T08:29:46;7.43;;;2.80;;
71696;SDS011;68167;59.120;37.898;2023-07-02T08:32:13;4.40;;;2.57;;
71696;SDS011;68167;59.120;37.898;2023-07-02T08:34:40;12.37;;;3.30;;
71696;SDS011;68167;59.120;37.898;2023-07-02T08:37:06;9.27;;;3.20;;
71696;SDS011;68167;59.120;37.898;2023-07-02T08:39:33;3.27;;;2.50;;
71696;SDS011;68167;59.120;37.898;2023-07-02T08:42:01;6.30;;;2.73;;
71696;SDS011;68167;59.120;37.898;2023-07-02T08:44:28;5.17;;;2.70;;
71696;SDS011;68167;59.120;37.898;2023-07-02T08:46:54;4.73;;;3.00;;
71696;SDS011;68167;59.120;37.898;2023-07-02T08:49:22;3.93;;;2.73;;
71696;SDS011;68167;59.120;37.898;2023-07-02T08:51:49;4.50;;;2.67;;
71696;SDS011;68167;59.120;37.898;2023-07-02T08:54:18;7.13;;;3.80;;
71696;SDS011;68167;59.120;37.898;2023-07-02T08:56:45;5.87;;;3.23;;
71696;SDS011;68167;59.120;37.898;2023-07-02T08:59:12;4.90;;;3.27;;
71696;SDS011;68167;59.120;37.898;2023-07-02T09:01:45;5.37;;;3.37;;
71696;SDS011;68167;59.120;37.898;2023-07-02T09:04:20;5.73;;;2.97;;
71696;SDS011;68167;59.120;37.898;2023-07-02T09:07:13;4.00;;;3.07;;
71696;SDS011;68167;59.120;37.898;2023-07-02T09:09:45;5.10;;;3.00;;
71696;SDS011;68167;59.120;37.898;2023-07-02T09:12:28;5.77;;;3.77;;
71696;SDS011;68167;59.120;37.898;2023-07-02T09:14:59;9.60;;;3.43;;
71696;SDS011;68167;59.120;37.898;2023-07-02T09:17:32;4.23;;;3.00;;
71696;SDS011;68167;59.120;37.898;2023-07-02T09:20:00;4.40;;;3.00;;
71696;SDS011;68167;59.120;37.898;2023-07-02T09:22:30;8.83;;;3.40;;
71696;SDS011;68167;59.120;37.898;2023-07-02T09:24:57;7.33;;;3.30;;
71696;SDS011;68167;59.120;37.898;2023-07-02T09:27:34;10.97;;;3.37;;
71696;SDS011;68167;59.120;37.898;2023-07-02T09:30:11;6.20;;;3.60;;
71696;SDS011;68167;59.120;37.898;2023-07-02T09:32:39;7.83;;;3.67;;
71696;SDS011;68167;59.120;37.898;2023-07-02T09:35:06;9.87;;;3.87;;
71696;SDS011;68167;59.120;37.898;2023-07-02T09:37:32;5.10;;;2.73;;
71696;SDS011;68167;59.120;37.898;2023-07-02T09:39:59;7.87;;;3.03;;
71696;SDS011;68167;59.120;37.898;2023-07-02T09:42:27;4.13;;;2.90;;
71696;SDS011;68167;59.120;37.898;2023-07-02T09:44:55;6.63;;;2.63;;
71696;SDS011;68167;59.120;37.898;2023-07-02T09:47:24;8.70;;;4.30;;
71696;SDS011;68167;59.120;37.898;2023-07-02T09:49:56;5.80;;;3.13;;
71696;SDS011;68167;59.120;37.898;2023-07-02T09:52:27;6.00;;;2.83;;
71696;SDS011;68167;59.120;37.898;2023-07-02T09:54:53;10.00;;;3.00;;
71696;SDS011;68167;59.120;37.898;2023-07-02T09:57:20;5.63;;;2.87;;
71696;SDS011;68167;59.120;37.898;2023-07-02T09:59:46;7.37;;;3.33;;
71696;SDS011;68167;59.120;37.898;2023-07-02T10:02:12;6.27;;;2.90;;
71696;SDS011;68167;59.120;37.898;2023-07-02T10:04:43;5.70;;;2.50;;
71696;SDS011;68167;59.120;37.898;2023-07-02T10:07:10;6.90;;;2.60;;
71696;SDS011;68167;59.120;37.898;2023-07-02T10:09:38;8.90;;;3.20;;
71696;SDS011;68167;59.120;37.898;2023-07-02T10:12:19;4.93;;;2.80;;
71696;SDS011;68167;59.120;37.898;2023-07-02T10:14:46;5.60;;;2.50;;
71696;SDS011;68167;59.120;37.898;2023-07-02T10:20:30;5.90;;;2.67;;
71696;SDS011;68167;59.120;37.898;2023-07-02T10:22:59;5.23;;;2.60;;
71696;SDS011;68167;59.120;37.898;2023-07-02T10:25:28;12.20;;;3.17;;
71696;SDS011;68167;59.120;37.898;2023-07-02T10:27:56;6.10;;;2.60;;
71696;SDS011;68167;59.120;37.898;2023-07-02T10:30:37;9.87;;;2.80;;
71696;SDS011;68167;59.120;37.898;2023-07-02T10:33:13;3.47;;;2.70;;
71696;SDS011;68167;59.120;37.898;2023-07-02T10:35:44;5.10;;;4.10;;
71696;SDS011;68167;59.120;37.898;2023-07-02T10:38:15;7.87;;;3.97;;
71696;SDS011;68167;59.120;37.898;2023-07-02T10:40:46;7.53;;;3.10;;
71696;SDS011;68167;59.120;37.898;2023-07-02T10:43:12;6.07;;;2.60;;
71696;SDS011;68167;59.120;37.898;2023-07-02T10:45:39;9.30;;;3.13;;
71696;SDS011;68167;59.120;37.898;2023-07-02T10:48:09;6.13;;;2.50;;
71696;SDS011;68167;59.120;37.898;2023-07-02T10:50:36;5.10;;;2.37;;
71696;SDS011;68167;59.120;37.898;2023-07-02T10:53:03;7.03;;;2.40;;
71696;SDS011;68167;59.120;37.898;2023-07-02T10:55:29;13.27;;;3.87;;
71696;SDS011;68167;59.120;37.898;2023-07-02T10:58:04;3.87;;;2.47;;
71696;SDS011;68167;59.120;37.898;2023-07-02T11:00:32;3.90;;;2.77;;
71696;SDS011;68167;59.120;37.898;2023-07-02T11:02:59;6.20;;;2.63;;
71696;SDS011;68167;59.120;37.898;2023-07-02T11:05:26;4.90;;;2.60;;
71696;SDS011;68167;59.120;37.898;2023-07-02T11:07:52;4.77;;;3.03;;
71696;SDS011;68167;59.120;37.898;2023-07-02T11:10:23;10.90;;;2.80;;
71696;SDS011;68167;59.120;37.898;2023-07-02T11:12:51;6.80;;;2.90;;
71696;SDS011;68167;59.120;37.898;2023-07-02T11:15:17;7.73;;;2.90;;
71696;SDS011;68167;59.120;37.898;2023-07-02T11:17:44;5.67;;;2.70;;
71696;SDS011;68167;59.120;37.898;2023-07-02T11:20:11;7.70;;;3.30;;
71696;SDS011;68167;59.120;37.898;2023-07-02T11:22:40;5.00;;;2.60;;
71696;SDS011;68167;59.120;37.898;2023-07-02T11:27:36;5.33;;;2.80;;
71696;SDS011;68167;59.120;37.898;2023-07-02T11:30:03;7.70;;;3.30;;
71696;SDS011;68167;59.120;37.898;2023-07-02T11:32:30;6.85;;;3.38;;
71696;SDS011;68167;59.120;37.898;2023-07-02T11:34:57;8.38;;;2.90;;
71696;SDS011;68167;59.120;37.898;2023-07-02T11:37:23;6.43;;;3.05;;
71696;SDS011;68167;59.120;37.898;2023-07-02T11:39:50;4.75;;;3.05;;
71696;SDS011;68167;59.120;37.898;2023-07-02T11:42:17;4.57;;;3.05;;
71696;SDS011;68167;59.120;37.898;2023-07-02T11:44:43;3.72;;;2.58;;
71696;SDS011;68167;59.120;37.898;2023-07-02T11:47:10;4.75;;;2.75;;
71696;SDS011;68167;59.120;37.898;2023-07-02T11:49:36;3.33;;;2.55;;
71696;SDS011;68167;59.120;37.898;2023-07-02T11:52:03;4.35;;;2.80;;
71696;SDS011;68167;59.120;37.898;2023-07-02T11:54:29;5.72;;;2.83;;
71696;SDS011;68167;59.120;37.898;2023-07-02T11:56:56;6.70;;;3.17;;
71696;SDS011;68167;59.120;37.898;2023-07-02T11:59:23;4.35;;;2.63;;
71696;SDS011;68167;59.120;37.898;2023-07-02T12:01:49;4.65;;;2.40;;
71696;SDS011;68167;59.120;37.898;2023-07-02T12:04:15;6.97;;;2.78;;
71696;SDS011;68167;59.120;37.898;2023-07-02T12:06:42;6.13;;;2.88;;
71696;SDS011;68167;59.120;37.898;2023-07-02T12:09:10;4.88;;;2.58;;
71696;SDS011;68167;59.120;37.898;2023-07-02T12:11:37;7.50;;;3.00;;
71696;SDS011;68167;59.120;37.898;2023-07-02T12:14:05;4.07;;;2.83;;
71696;SDS011;68167;59.120;37.898;2023-07-02T12:16:31;5.10;;;3.05;;
71696;SDS011;68167;59.120;37.898;2023-07-02T12:18:57;5.22;;;2.70;;
71696;SDS011;68167;59.120;37.898;2023-07-02T12:21:23;6.22;;;2.70;;
71696;SDS011;68167;59.120;37.898;2023-07-02T12:23:54;7.40;;;2.95;;
71696;SDS011;68167;59.120;37.898;2023-07-02T12:26:20;5.60;;;3.67;;
71696;SDS011;68167;59.120;37.898;2023-07-02T12:28:46;6.57;;;3.40;;
71696;SDS011;68167;59.120;37.898;2023-07-02T12:31:13;6.05;;;2.97;;
71696;SDS011;68167;59.120;37.898;2023-07-02T12:33:39;5.70;;;3.22;;
71696;SDS011;68167;59.120;37.898;2023-07-02T12:36:05;3.90;;;3.00;;
71696;SDS011;68167;59.120;37.898;2023-07-02T12:38:31;3.50;;;2.75;;
71696;SDS011;68167;59.120;37.898;2023-07-02T12:40:58;3.60;;;2.70;;
71696;SDS011;68167;59.120;37.898;2023-07-02T12:43:24;10.63;;;2.88;;
71696;SDS011;68167;59.120;37.898;2023-07-02T12:45:50;6.05;;;3.00;;
71696;SDS011;68167;59.120;37.898;2023-07-02T12:48:17;5.55;;;2.70;;
71696;SDS011;68167;59.120;37.898;2023-07-02T12:50:52;6.85;;;3.10;;
71696;SDS011;68167;59.120;37.898;2023-07-02T12:53:23;5.97;;;2.90;;
71696;SDS011;68167;59.120;37.898;2023-07-02T12:55:51;4.60;;;3.00;;
71696;SDS011;68167;59.120;37.898;2023-07-02T12:58:17;4.32;;;3.00;;
71696;SDS011;68167;59.120;37.898;2023-07-02T13:00:44;3.55;;;2.65;;
71696;SDS011;68167;59.120;37.898;2023-07-02T13:03:11;6.13;;;3.45;;
71696;SDS011;68167;59.120;37.898;2023-07-02T13:05:39;4.03;;;2.70;;
71696;SDS011;68167;59.120;37.898;2023-07-02T13:08:06;4.10;;;2.85;;
71696;SDS011;68167;59.120;37.898;2023-07-02T13:10:33;6.50;;;2.85;;
71696;SDS011;68167;59.120;37.898;2023-07-02T13:13:00;4.65;;;3.22;;
71696;SDS011;68167;59.120;37.898;2023-07-02T13:15:26;6.30;;;3.20;;
71696;SDS011;68167;59.120;37.898;2023-07-02T13:17:53;4.63;;;3.20;;
71696;SDS011;68167;59.120;37.898;2023-07-02T13:20:19;4.43;;;3.05;;
71696;SDS011;68167;59.120;37.898;2023-07-02T13:22:46;4.38;;;2.95;;
71696;SDS011;68167;59.120;37.898;2023-07-02T13:25:12;5.10;;;3.70;;
71696;SDS011;68167;59.120;37.898;2023-07-02T13:27:39;6.07;;;2.65;;
71696;SDS011;68167;59.120;37.898;2023-07-02T13:30:05;5.78;;;3.10;;
71696;SDS011;68167;59.120;37.898;2023-07-02T13:32:32;4.47;;;3.03;;
71696;SDS011;68167;59.120;37.898;2023-07-02T13:34:59;3.53;;;2.63;;
71696;SDS011;68167;59.120;37.898;2023-07-02T13:37:25;4.93;;;3.10;;
71696;SDS011;68167;59.120;37.898;2023-07-02T13:39:52;3.45;;;2.90;;
71696;SDS011;68167;59.120;37.898;2023-07-02T13:42:18;5.68;;;3.00;;
71696;SDS011;68167;59.120;37.898;2023-07-02T13:44:45;5.75;;;2.90;;
71696;SDS011;68167;59.120;37.898;2023-07-02T13:47:12;5.05;;;2.67;;
71696;SDS011;68167;59.120;37.898;2023-07-02T13:49:38;5.32;;;2.97;;
71696;SDS011;68167;59.120;37.898;2023-07-02T13:52:05;5.32;;;2.67;;
71696;SDS011;68167;59.120;37.898;2023-07-02T13:54:31;7.40;;;3.20;;
71696;SDS011;68167;59.120;37.898;2023-07-02T13:56:57;6.70;;;3.47;;
71696;SDS011;68167;59.120;37.898;2023-07-02T13:59:24;4.38;;;3.25;;
71696;SDS011;68167;59.120;37.898;2023-07-02T14:01:50;4.78;;;3.60;;
71696;SDS011;68167;59.120;37.898;2023-07-02T14:04:17;4.28;;;3.08;;
71696;SDS011;68167;59.120;37.898;2023-07-02T14:06:44;6.20;;;4.00;;
71696;SDS011;68167;59.120;37.898;2023-07-02T14:09:11;7.22;;;3.47;;
71696;SDS011;68167;59.120;37.898;2023-07-02T14:11:38;4.05;;;3.00;;
71696;SDS011;68167;59.120;37.898;2023-07-02T14:14:05;3.92;;;3.47;;
71696;SDS011;68167;59.120;37.898;2023-07-02T14:16:32;4.65;;;3.97;;
71696;SDS011;68167;59.120;37.898;2023-07-02T14:18:58;5.22;;;4.10;;
71696;SDS011;68167;59.120;37.898;2023-07-02T14:21:25;6.05;;;4.25;;
71696;SDS011;68167;59.120;37.898;2023-07-02T14:23:51;5.45;;;4.25;;
71696;SDS011;68167;59.120;37.898;2023-07-02T14:26:18;8.18;;;4.30;;
71696;SDS011;68167;59.120;37.898;2023-07-02T14:28:44;5.40;;;4.30;;
71696;SDS011;68167;59.120;37.898;2023-07-02T14:31:10;5.43;;;4.13;;
71696;SDS011;68167;59.120;37.898;2023-07-02T14:33:37;8.77;;;4.18;;
71696;SDS011;68167;59.120;37.898;2023-07-02T14:36:04;7.55;;;4.30;;
71696;SDS011;68167;59.120;37.898;2023-07-02T14:38:31;4.70;;;4.15;;
71696;SDS011;68167;59.120;37.898;2023-07-02T14:40:58;6.68;;;4.30;;